Time;durP1;ratioP1;P1;durP2;ratioP2;P2;SDS_P1;SDS_P2;PMS_P1;PMS_P2;Temp;Humidity;BMP_temperature;BMP_pressure;BME280_temperature;BME280_humidity;BME280_pressure;Samples;Min_cycle;Max_cycle;Signal;HPM_P1;HPM_P2
2022/12/24 00:01:08;;;;;;;13.43;2.33;;;;;;;;;;5052121;27;20412;-72
2022/12/24 00:03:36;;;;;;;14.43;2.05;;;;;;;;;;4994953;28;20106;-72
2022/12/24 00:06:04;;;;;;;14.93;2.20;;;;;;;;;;4991121;28;20050;-72
2022/12/24 00:08:30;;;;;;;10.82;2.10;;;;;;;;;;5031562;28;20045;-72
2022/12/24 00:10:57;;;;;;;15.00;2.88;;;;;;;;;;4941800;28;20120;-74
2022/12/24 00:16:52;;;;;;;11.77;1.67;;;;;;;;;;4999041;28;20049;-72
2022/12/24 00:19:18;;;;;;;14.88;2.38;;;;;;;;;;5011056;28;20049;-71
2022/12/24 00:21:45;;;;;;;9.10;1.73;;;;;;;;;;4996351;28;20456;-74
2022/12/24 00:24:12;;;;;;;15.20;2.67;;;;;;;;;;5015842;28;20119;-72
2022/12/24 00:26:38;;;;;;;9.25;1.85;;;;;;;;;;5003652;28;20064;-72
2022/12/24 00:29:05;;;;;;;12.65;2.00;;;;;;;;;;5012610;28;20046;-73
2022/12/24 00:31:33;;;;;;;14.00;2.25;;;;;;;;;;5024394;28;20056;-72
2022/12/24 00:34:01;;;;;;;10.40;2.20;;;;;;;;;;5047482;28;20057;-73
2022/12/24 00:36:28;;;;;;;14.18;2.30;;;;;;;;;;5011263;28;20135;-73
2022/12/24 00:38:55;;;;;;;16.52;2.75;;;;;;;;;;4985411;28;20076;-72
2022/12/24 00:41:27;;;;;;;15.50;2.58;;;;;;;;;;5033941;28;20049;-72
2022/12/24 00:44:20;;;;;;;20.27;2.60;;;;;;;;;;4974146;28;20096;-72
2022/12/24 00:50:33;;;;;;;26.17;2.28;;;;;;;;;;4996304;28;20072;-72
2022/12/24 00:52:59;;;;;;;12.30;2.05;;;;;;;;;;5026898;28;20044;-71
2022/12/24 00:55:26;;;;;;;18.10;3.03;;;;;;;;;;5020097;28;20155;-72
2022/12/24 00:57:53;;;;;;;12.52;2.13;;;;;;;;;;4947599;28;20046;-71
2022/12/24 01:00:20;;;;;;;15.02;2.20;;;;;;;;;;4828911;28;20235;-72
2022/12/24 01:02:46;;;;;;;21.75;2.78;;;;;;;;;;4978486;28;20141;-73
2022/12/24 01:05:12;;;;;;;15.40;2.50;;;;;;;;;;5007789;28;20133;-73
2022/12/24 01:07:41;;;;;;;16.63;2.70;;;;;;;;;;5029542;28;20125;-72
2022/12/24 01:10:08;;;;;;;15.15;3.08;;;;;;;;;;4991406;28;20143;-73
2022/12/24 01:12:35;;;;;;;15.65;2.55;;;;;;;;;;5029893;28;20144;-73
2022/12/24 01:15:02;;;;;;;12.40;2.28;;;;;;;;;;4968429;28;20115;-73
2022/12/24 01:17:28;;;;;;;13.45;1.83;;;;;;;;;;4977542;28;20057;-73
2022/12/24 01:19:55;;;;;;;12.68;2.40;;;;;;;;;;4921295;28;20063;-72
2022/12/24 01:22:22;;;;;;;8.77;1.95;;;;;;;;;;4903734;29;20059;-71
2022/12/24 01:24:49;;;;;;;17.35;2.13;;;;;;;;;;4964183;28;20073;-72
2022/12/24 01:27:16;;;;;;;16.23;2.23;;;;;;;;;;4999490;28;20073;-73
2022/12/24 01:29:43;;;;;;;19.30;2.42;;;;;;;;;;4992185;28;20113;-71
2022/12/24 01:32:10;;;;;;;13.75;2.33;;;;;;;;;;5000719;28;20136;-72
2022/12/24 01:34:37;;;;;;;19.58;2.03;;;;;;;;;;4956318;28;20058;-73
2022/12/24 01:37:03;;;;;;;12.98;3.00;;;;;;;;;;4943941;28;20061;-72
2022/12/24 01:39:30;;;;;;;11.20;1.92;;;;;;;;;;4987064;28;20066;-72
2022/12/24 01:44:42;;;;;;;11.32;2.25;;;;;;;;;;5047643;28;20068;-72
2022/12/24 01:47:11;;;;;;;17.08;2.40;;;;;;;;;;4994370;28;20057;-73
2022/12/24 01:54:47;;;;;;;20.08;2.13;;;;;;;;;;5056294;27;20429;-72
2022/12/24 01:57:15;;;;;;;16.15;2.67;;;;;;;;;;5007206;28;20057;-72
2022/12/24 01:59:44;;;;;;;21.20;2.70;;;;;;;;;;4995649;28;20126;-72
2022/12/24 02:02:10;;;;;;;10.30;1.90;;;;;;;;;;5002326;28;20057;-72
2022/12/24 02:04:40;;;;;;;17.58;2.58;;;;;;;;;;5032303;28;20048;-72
2022/12/24 02:07:06;;;;;;;11.32;2.25;;;;;;;;;;4997317;28;20111;-72
2022/12/24 02:12:01;;;;;;;11.23;1.98;;;;;;;;;;4964898;28;20073;-72
2022/12/24 02:14:31;;;;;;;16.25;2.60;;;;;;;;;;4988795;28;20148;-72
2022/12/24 02:17:00;;;;;;;14.90;2.17;;;;;;;;;;4992781;28;20044;-71
2022/12/24 02:19:41;;;;;;;14.73;2.38;;;;;;;;;;4958304;28;20052;-73
2022/12/24 02:22:12;;;;;;;14.38;1.90;;;;;;;;;;5019433;28;20052;-72
2022/12/24 02:24:55;;;;;;;11.57;1.85;;;;;;;;;;5020739;28;20053;-72
2022/12/24 02:27:37;;;;;;;14.10;2.17;;;;;;;;;;5012096;28;20045;-72
2022/12/24 02:30:08;;;;;;;18.45;2.20;;;;;;;;;;4989206;28;20063;-72
2022/12/24 02:32:39;;;;;;;12.90;2.00;;;;;;;;;;4953813;28;20050;-71
2022/12/24 02:35:09;;;;;;;10.93;1.33;;;;;;;;;;4980054;28;20053;-72
2022/12/24 02:37:38;;;;;;;10.25;1.90;;;;;;;;;;4970409;28;20054;-73
2022/12/24 02:40:08;;;;;;;13.18;2.10;;;;;;;;;;4960451;28;20061;-71
2022/12/24 02:42:37;;;;;;;15.52;1.63;;;;;;;;;;5026618;28;20072;-72
2022/12/24 02:45:06;;;;;;;16.00;2.20;;;;;;;;;;5034258;28;20063;-73
2022/12/24 02:47:33;;;;;;;;;;;;;;;;;;4988034;28;20069;-72
2022/12/24 02:50:03;;;;;;;10.05;1.63;;;;;;;;;;4992377;28;19936;-72
2022/12/24 02:52:31;;;;;;;12.95;2.40;;;;;;;;;;4991959;28;20057;-72
2022/12/24 02:54:58;;;;;;;11.02;1.70;;;;;;;;;;5012757;28;20120;-71
2022/12/24 02:57:29;;;;;;;13.05;1.90;;;;;;;;;;5021409;28;20085;-71
2022/12/24 03:00:01;;;;;;;11.02;1.63;;;;;;;;;;5010329;28;20056;-71
2022/12/24 03:02:34;;;;;;;13.63;1.40;;;;;;;;;;5006809;28;20101;-72
2022/12/24 03:05:08;;;;;;;11.98;1.88;;;;;;;;;;4982686;28;20049;-72
2022/12/24 03:07:37;;;;;;;16.95;1.58;;;;;;;;;;4969317;28;20052;-72
2022/12/24 03:10:12;;;;;;;15.77;1.60;;;;;;;;;;4992498;28;20066;-72
2022/12/24 03:12:41;;;;;;;14.85;1.83;;;;;;;;;;4985909;28;20077;-72
2022/12/24 03:15:09;;;;;;;9.43;1.75;;;;;;;;;;4988344;28;20099;-72
2022/12/24 03:17:37;;;;;;;10.65;1.65;;;;;;;;;;4985124;28;20079;-71
2022/12/24 03:20:06;;;;;;;13.47;2.07;;;;;;;;;;5006274;28;20061;-72
2022/12/24 03:22:34;;;;;;;11.57;1.80;;;;;;;;;;4999239;28;20053;-72
2022/12/24 03:25:00;;;;;;;13.52;1.95;;;;;;;;;;4977357;28;20079;-72
2022/12/24 03:27:29;;;;;;;13.93;1.88;;;;;;;;;;5002646;28;20060;-71
2022/12/24 03:29:56;;;;;;;8.27;1.55;;;;;;;;;;4972359;28;20061;-72
2022/12/24 03:32:28;;;;;;;16.52;1.80;;;;;;;;;;4980316;28;20053;-71
2022/12/24 03:34:54;;;;;;;8.60;1.35;;;;;;;;;;5002978;28;20054;-72
2022/12/24 03:37:23;;;;;;;8.80;1.70;;;;;;;;;;4996392;28;20049;-72
2022/12/24 03:39:50;;;;;;;14.07;1.45;;;;;;;;;;4986646;28;20077;-70
2022/12/24 03:42:17;;;;;;;8.70;1.63;;;;;;;;;;5000808;28;20053;-72
2022/12/24 03:44:43;;;;;;;13.68;1.67;;;;;;;;;;4997916;28;20061;-72
2022/12/24 03:47:10;;;;;;;11.18;1.63;;;;;;;;;;4983140;28;20115;-71
2022/12/24 03:49:36;;;;;;;8.68;1.60;;;;;;;;;;4996687;28;20071;-72
2022/12/24 03:52:03;;;;;;;9.88;1.85;;;;;;;;;;5004206;28;20053;-72
2022/12/24 03:54:31;;;;;;;12.10;1.58;;;;;;;;;;5015095;28;20053;-71
2022/12/24 03:56:57;;;;;;;10.43;1.80;;;;;;;;;;5001611;28;20056;-72
2022/12/24 03:59:24;;;;;;;7.18;1.33;;;;;;;;;;5007097;28;20049;-72
2022/12/24 04:01:50;;;;;;;7.05;1.55;;;;;;;;;;4993479;28;20060;-71
2022/12/24 04:04:17;;;;;;;9.43;1.83;;;;;;;;;;4990637;28;20143;-72
2022/12/24 04:06:46;;;;;;;12.27;1.85;;;;;;;;;;5011422;28;20053;-71
2022/12/24 04:09:13;;;;;;;14.50;1.90;;;;;;;;;;4954005;28;20053;-72
2022/12/24 04:11:41;;;;;;;13.27;1.65;;;;;;;;;;4965378;28;20144;-71
2022/12/24 04:14:08;;;;;;;11.75;1.65;;;;;;;;;;4945149;28;20055;-71
2022/12/24 04:16:35;;;;;;;10.93;1.73;;;;;;;;;;4950607;28;20327;-71
2022/12/24 04:19:01;;;;;;;7.70;1.65;;;;;;;;;;5005664;28;20081;-70
2022/12/24 04:21:28;;;;;;;12.65;1.85;;;;;;;;;;5002463;28;20053;-70
2022/12/24 04:23:54;;;;;;;11.93;1.70;;;;;;;;;;4996409;28;20059;-71
2022/12/24 04:26:21;;;;;;;10.73;1.50;;;;;;;;;;4991069;28;20050;-70
2022/12/24 04:28:49;;;;;;;8.90;1.35;;;;;;;;;;5024310;28;20057;-71
2022/12/24 04:31:17;;;;;;;18.10;2.08;;;;;;;;;;4973162;28;20053;-71
2022/12/24 04:33:43;;;;;;;9.82;1.65;;;;;;;;;;4979282;28;20049;-70
2022/12/24 04:36:12;;;;;;;11.40;1.90;;;;;;;;;;4980584;28;20134;-71
2022/12/24 04:38:40;;;;;;;11.02;1.90;;;;;;;;;;4983892;28;20064;-70
2022/12/24 04:41:08;;;;;;;11.27;1.75;;;;;;;;;;4993086;28;20160;-71
2022/12/24 04:43:34;;;;;;;16.02;1.85;;;;;;;;;;5002223;28;20072;-70
2022/12/24 04:46:05;;;;;;;18.48;2.08;;;;;;;;;;5013579;28;20053;-70
2022/12/24 04:48:32;;;;;;;14.32;2.33;;;;;;;;;;5001320;28;20064;-70
2022/12/24 04:51:00;;;;;;;18.85;2.90;;;;;;;;;;5029378;28;20072;-71
2022/12/24 04:53:27;;;;;;;14.55;1.80;;;;;;;;;;4970642;28;20061;-70
2022/12/24 04:55:54;;;;;;;11.73;1.67;;;;;;;;;;4998178;28;20057;-70
2022/12/24 04:58:21;;;;;;;10.38;1.75;;;;;;;;;;4998528;28;20114;-71
2022/12/24 05:00:47;;;;;;;17.95;3.03;;;;;;;;;;4994450;28;20097;-72
2022/12/24 05:03:15;;;;;;;13.45;1.73;;;;;;;;;;4960185;28;20055;-72
2022/12/24 05:05:42;;;;;;;16.60;1.88;;;;;;;;;;4945662;28;20063;-71
2022/12/24 05:08:24;;;;;;;10.70;1.80;;;;;;;;;;4905102;28;20059;-72
2022/12/24 05:16:06;;;;;;;8.65;1.70;;;;;;;;;;5067488;27;20475;-69
2022/12/24 05:18:32;;;;;;;15.00;2.63;;;;;;;;;;5048418;28;20048;-71
2022/12/24 05:20:59;;;;;;;12.68;1.80;;;;;;;;;;5035884;28;20076;-72
2022/12/24 05:26:23;;;;;;;15.20;2.47;;;;;;;;;;5018895;28;20052;-72
2022/12/24 05:28:50;;;;;;;14.82;1.70;;;;;;;;;;5030860;28;20049;-71
2022/12/24 05:31:19;;;;;;;12.10;2.17;;;;;;;;;;5044247;28;20056;-71
2022/12/24 05:33:46;;;;;;;12.35;1.70;;;;;;;;;;5028250;28;20142;-70
2022/12/24 05:36:12;;;;;;;9.80;1.70;;;;;;;;;;5016830;28;20099;-70
2022/12/24 05:38:39;;;;;;;14.73;2.38;;;;;;;;;;5031285;28;20384;-72
2022/12/24 05:41:09;;;;;;;9.77;1.85;;;;;;;;;;5049829;28;20101;-71
2022/12/24 05:46:21;;;;;;;12.55;2.05;;;;;;;;;;5018345;27;1391988;-71
2022/12/24 05:48:48;;;;;;;15.35;2.17;;;;;;;;;;5019644;28;20044;-71
2022/12/24 05:51:17;;;;;;;15.55;1.98;;;;;;;;;;5045259;28;20059;-72
2022/12/24 05:53:47;;;;;;;13.23;1.88;;;;;;;;;;5031609;28;20060;-71
2022/12/24 05:56:14;;;;;;;14.40;2.03;;;;;;;;;;5049048;28;20061;-71
2022/12/24 05:58:41;;;;;;;10.63;2.45;;;;;;;;;;5041364;28;20064;-71
2022/12/24 06:01:08;;;;;;;12.48;1.90;;;;;;;;;;5043679;28;20090;-71
2022/12/24 06:03:37;;;;;;;11.40;1.90;;;;;;;;;;5065791;27;20067;-71
2022/12/24 06:06:04;;;;;;;13.23;2.10;;;;;;;;;;5055832;28;20052;-72
2022/12/24 06:08:31;;;;;;;20.42;2.67;;;;;;;;;;5058242;28;20052;-71
2022/12/24 06:10:58;;;;;;;22.02;2.72;;;;;;;;;;5041549;28;20131;-70
2022/12/24 06:13:25;;;;;;;18.00;2.35;;;;;;;;;;5057080;27;20152;-71
2022/12/24 06:15:54;;;;;;;19.20;2.33;;;;;;;;;;5062712;28;20055;-71
2022/12/24 06:18:20;;;;;;;11.85;2.30;;;;;;;;;;5063438;28;20044;-72
2022/12/24 06:20:51;;;;;;;21.33;2.20;;;;;;;;;;5074346;28;20127;-72
2022/12/24 06:23:17;;;;;;;13.13;2.20;;;;;;;;;;5043096;28;20052;-71
2022/12/24 06:25:46;;;;;;;18.95;2.50;;;;;;;;;;5072535;28;20119;-71
2022/12/24 06:28:12;;;;;;;18.80;2.17;;;;;;;;;;5036536;28;20052;-72
2022/12/24 06:30:39;;;;;;;13.63;2.63;;;;;;;;;;5031310;28;20131;-71
2022/12/24 06:33:08;;;;;;;19.33;2.30;;;;;;;;;;5066253;28;20049;-72
2022/12/24 06:35:35;;;;;;;10.43;1.88;;;;;;;;;;5017384;28;20978;-72
2022/12/24 06:38:03;;;;;;;8.13;1.58;;;;;;;;;;5053749;28;20060;-70
2022/12/24 06:40:29;;;;;;;25.50;2.83;;;;;;;;;;5055852;28;20131;-71
2022/12/24 06:42:56;;;;;;;11.18;1.85;;;;;;;;;;5034307;28;20135;-71
2022/12/24 06:45:23;;;;;;;18.15;2.05;;;;;;;;;;5031606;28;20055;-71
2022/12/24 06:47:49;;;;;;;12.40;2.00;;;;;;;;;;5068408;28;20053;-72
2022/12/24 06:50:16;;;;;;;14.68;2.70;;;;;;;;;;5034367;28;20173;-70
2022/12/24 06:52:43;;;;;;;21.50;2.97;;;;;;;;;;5013614;28;20056;-71
2022/12/24 06:55:12;;;;;;;14.60;2.38;;;;;;;;;;4949039;28;20060;-72
2022/12/24 06:57:38;;;;;;;13.25;2.38;;;;;;;;;;5022130;28;20057;-71
2022/12/24 07:00:06;;;;;;;11.80;2.15;;;;;;;;;;5039140;28;20068;-71
2022/12/24 07:02:32;;;;;;;16.23;2.25;;;;;;;;;;5037958;28;20576;-71
2022/12/24 07:04:59;;;;;;;14.98;1.95;;;;;;;;;;5045900;28;20044;-72
2022/12/24 07:07:25;;;;;;;12.27;2.40;;;;;;;;;;5049451;28;20056;-72
2022/12/24 07:09:52;;;;;;;13.82;2.03;;;;;;;;;;5060401;28;20075;-71
2022/12/24 07:12:20;;;;;;;24.30;2.80;;;;;;;;;;5076210;28;20058;-71
2022/12/24 07:14:46;;;;;;;27.07;2.67;;;;;;;;;;5065829;28;20047;-71
2022/12/24 07:17:13;;;;;;;14.18;2.40;;;;;;;;;;5046763;28;20116;-72
2022/12/24 07:19:40;;;;;;;15.55;1.83;;;;;;;;;;5055597;28;20060;-72
2022/12/24 07:22:06;;;;;;;16.13;2.42;;;;;;;;;;5053710;28;20079;-72
2022/12/24 07:24:33;;;;;;;18.05;2.58;;;;;;;;;;5048373;28;20052;-71
2022/12/24 07:26:59;;;;;;;16.30;2.80;;;;;;;;;;5083497;27;20054;-72
2022/12/24 07:29:29;;;;;;;17.75;3.13;;;;;;;;;;5069441;27;20048;-71
2022/12/24 07:31:56;;;;;;;17.13;2.40;;;;;;;;;;5056855;27;20166;-73
2022/12/24 07:36:49;;;;;;;20.17;2.88;;;;;;;;;;4966290;28;20045;-72
2022/12/24 07:39:16;;;;;;;24.25;3.35;;;;;;;;;;5009284;28;20049;-71
2022/12/24 07:41:43;;;;;;;13.13;3.13;;;;;;;;;;5040573;28;20068;-72
2022/12/24 07:44:11;;;;;;;14.80;2.83;;;;;;;;;;5011818;28;20052;-73
2022/12/24 07:46:43;;;;;;;18.17;2.90;;;;;;;;;;5024179;28;20060;-71
2022/12/24 07:49:10;;;;;;;16.33;2.83;;;;;;;;;;5008183;28;20065;-71
2022/12/24 07:51:37;;;;;;;24.30;2.83;;;;;;;;;;4942427;28;20049;-71
2022/12/24 07:54:04;;;;;;;17.65;2.80;;;;;;;;;;4923303;28;20092;-72
2022/12/24 07:56:31;;;;;;;17.13;2.58;;;;;;;;;;4961812;28;20075;-71
2022/12/24 07:58:58;;;;;;;17.42;2.85;;;;;;;;;;5026624;28;20064;-71
2022/12/24 08:01:27;;;;;;;17.52;2.58;;;;;;;;;;5003694;28;20060;-71
2022/12/24 08:03:55;;;;;;;13.80;2.00;;;;;;;;;;5047071;28;20055;-72
2022/12/24 08:06:22;;;;;;;18.25;3.70;;;;;;;;;;5000559;28;20056;-72
2022/12/24 08:08:48;;;;;;;14.70;2.00;;;;;;;;;;5026333;28;20040;-72
2022/12/24 08:11:15;;;;;;;14.13;2.15;;;;;;;;;;5024649;28;20048;-71
2022/12/24 08:13:43;;;;;;;10.63;2.05;;;;;;;;;;5032842;28;20147;-71
2022/12/24 08:16:09;;;;;;;18.53;2.20;;;;;;;;;;5006885;28;20135;-72
2022/12/24 08:18:36;;;;;;;10.93;2.10;;;;;;;;;;5019516;28;20053;-71
2022/12/24 08:21:07;;;;;;;19.23;3.05;;;;;;;;;;5009835;28;20048;-71
2022/12/24 08:23:33;;;;;;;15.77;2.28;;;;;;;;;;5019117;28;20076;-71
2022/12/24 08:26:02;;;;;;;15.27;2.30;;;;;;;;;;5033625;28;20124;-71
2022/12/24 08:28:29;;;;;;;17.40;2.30;;;;;;;;;;5066014;28;20048;-72
2022/12/24 08:30:56;;;;;;;15.25;2.20;;;;;;;;;;5052461;28;20518;-71
2022/12/24 08:33:23;;;;;;;17.10;3.28;;;;;;;;;;5061095;28;20067;-72
2022/12/24 08:35:51;;;;;;;17.63;2.47;;;;;;;;;;5015267;28;20058;-72
2022/12/24 08:38:19;;;;;;;19.90;2.28;;;;;;;;;;5028547;28;20052;-72
2022/12/24 08:40:48;;;;;;;18.98;2.40;;;;;;;;;;5022954;28;20052;-71
2022/12/24 08:43:15;;;;;;;14.63;2.38;;;;;;;;;;5030246;28;20067;-73
2022/12/24 08:45:42;;;;;;;18.77;2.65;;;;;;;;;;5051449;28;20048;-71
2022/12/24 08:48:09;;;;;;;14.63;2.53;;;;;;;;;;5029259;28;20079;-72
2022/12/24 08:50:38;;;;;;;15.68;3.10;;;;;;;;;;5011287;28;20095;-72
2022/12/24 08:53:06;;;;;;;;;;;;;;;;;;5001485;28;20187;-72
2022/12/24 08:55:35;;;;;;;9.75;1.77;;;;;;;;;;5057831;28;21028;-72
2022/12/24 08:58:01;;;;;;;12.02;2.97;;;;;;;;;;5020537;28;20053;-71
2022/12/24 09:00:28;;;;;;;13.02;2.88;;;;;;;;;;5063325;27;20049;-72
2022/12/24 09:02:55;;;;;;;25.10;2.92;;;;;;;;;;5072186;28;20045;-73
2022/12/24 09:05:22;;;;;;;14.90;2.70;;;;;;;;;;4985135;28;20060;-71
2022/12/24 09:07:48;;;;;;;20.17;2.80;;;;;;;;;;5016505;28;20072;-71
2022/12/24 09:10:15;;;;;;;13.35;2.45;;;;;;;;;;5016027;28;20058;-73
2022/12/24 09:12:43;;;;;;;23.25;3.00;;;;;;;;;;5041142;28;20060;-72
2022/12/24 09:15:23;;;;;;;;;;;;;;;;;;;;;
2022/12/24 09:17:50;;;;;;;20.40;3.25;;;;;;;;;;5028208;28;20062;-72
2022/12/24 09:20:17;;;;;;;17.02;2.60;;;;;;;;;;5020310;28;20048;-72
2022/12/24 09:22:46;;;;;;;23.98;4.30;;;;;;;;;;5008335;28;20051;-72
2022/12/24 09:30:14;;;;;;;17.63;3.42;;;;;;;;;;4983548;28;20197;-72
2022/12/24 09:32:40;;;;;;;19.45;3.03;;;;;;;;;;5044855;28;20056;-71
2022/12/24 09:35:19;;;;;;;22.67;2.88;;;;;;;;;;5035385;28;20101;-72
2022/12/24 09:37:46;;;;;;;22.15;2.53;;;;;;;;;;5029666;28;20152;-71
2022/12/24 09:40:19;;;;;;;15.63;3.10;;;;;;;;;;5034300;28;20060;-71
2022/12/24 09:42:51;;;;;;;17.90;3.47;;;;;;;;;;5028644;28;20048;-71
2022/12/24 09:45:22;;;;;;;16.48;2.70;;;;;;;;;;5018928;28;20056;-71
2022/12/24 09:47:50;;;;;;;20.23;2.92;;;;;;;;;;5062478;28;20051;-72
2022/12/24 09:50:30;;;;;;;15.65;3.58;;;;;;;;;;5066527;28;20048;-71
2022/12/24 09:53:02;;;;;;;22.48;3.25;;;;;;;;;;5059036;28;20055;-71
2022/12/24 09:55:35;;;;;;;19.17;3.15;;;;;;;;;;5023313;28;20048;-71
2022/12/24 09:58:21;;;;;;;22.85;2.90;;;;;;;;;;5014754;28;20061;-71
2022/12/24 10:00:57;;;;;;;16.98;2.78;;;;;;;;;;5030062;28;20327;-71
2022/12/24 10:03:27;;;;;;;24.83;3.97;;;;;;;;;;5041420;28;20049;-71
2022/12/24 10:11:58;;;;;;;20.85;2.83;;;;;;;;;;5100549;28;20051;-71
2022/12/24 10:14:30;;;;;;;22.67;2.95;;;;;;;;;;5053074;28;20051;-71
2022/12/24 10:17:17;;;;;;;27.50;3.72;;;;;;;;;;5034337;28;20395;-71
2022/12/24 10:22:42;;;;;;;19.85;2.83;;;;;;;;;;5058486;28;20047;-71
2022/12/24 10:25:28;;;;;;;21.67;2.95;;;;;;;;;;5018371;28;20052;-71
2022/12/24 10:28:27;;;;;;;14.93;3.17;;;;;;;;;;5049889;28;20056;-71
2022/12/24 10:31:17;;;;;;;18.10;3.00;;;;;;;;;;4972648;28;20084;-71
2022/12/24 10:33:53;;;;;;;30.00;3.88;;;;;;;;;;5014647;28;20152;-73
2022/12/24 10:36:31;;;;;;;19.17;3.17;;;;;;;;;;5037219;27;20063;-72
2022/12/24 10:38:58;;;;;;;20.83;3.63;;;;;;;;;;5082987;28;20063;-72
2022/12/24 10:41:44;;;;;;;14.05;2.47;;;;;;;;;;5025436;28;20287;-72
2022/12/24 10:44:18;;;;;;;22.00;3.38;;;;;;;;;;4979126;28;20050;-73
2022/12/24 10:46:47;;;;;;;;;;;;;;;;;;4998004;28;20057;-72
2022/12/24 10:49:22;;;;;;;13.70;2.70;;;;;;;;;;5008256;28;19938;-73
2022/12/24 10:55:58;;;;;;;;;;;;;;;;;;;;;
2022/12/24 10:59:16;;;;;;;24.30;3.00;;;;;;;;;;4939176;28;20084;-72
2022/12/24 11:18:37;;;;;;;19.42;2.15;;;;;;;;;;6185557;22;1546936;-78
2022/12/24 11:21:09;;;;;;;24.77;3.78;;;;;;;;;;6099837;23;20053;-78
2022/12/24 11:23:36;;;;;;;15.98;2.88;;;;;;;;;;6025472;23;20029;-78
2022/12/24 12:04:58;;;;;;;10.30;2.50;;;;;;;;;;6241843;22;1430267;-78
2022/12/24 12:28:47;;;;;;;19.73;2.50;;;;;;;;;;6239798;22;20029;-78
2022/12/24 12:31:22;;;;;;;15.80;2.45;;;;;;;;;;6121228;23;20029;-78
2022/12/24 12:33:57;;;;;;;12.13;2.90;;;;;;;;;;6025557;23;20081;-78
2022/12/24 12:49:42;;;;;;;11.87;1.97;;;;;;;;;;6143038;22;1592614;-67
2022/12/24 12:52:16;;;;;;;14.10;2.17;;;;;;;;;;6142801;23;20320;-72
2022/12/24 12:54:50;;;;;;;12.07;2.70;;;;;;;;;;6099993;23;20356;-72
2022/12/24 13:02:44;;;;;;;13.77;2.42;;;;;;;;;;5013860;28;20486;-72
2022/12/24 13:05:37;;;;;;;17.98;3.30;;;;;;;;;;4934854;28;20154;-73
2022/12/24 13:08:19;;;;;;;24.20;2.67;;;;;;;;;;4908494;28;20054;-74
2022/12/24 13:13:41;;;;;;;15.02;2.15;;;;;;;;;;4779775;28;21006;-71
2022/12/24 13:18:52;;;;;;;18.92;2.50;;;;;;;;;;4858947;28;20038;-70
2022/12/24 13:21:32;;;;;;;18.00;2.33;;;;;;;;;;5007220;28;20053;-71
2022/12/24 13:24:06;;;;;;;11.63;2.28;;;;;;;;;;4973231;28;20086;-71
2022/12/24 13:26:32;;;;;;;17.00;2.92;;;;;;;;;;4982343;28;20139;-70
2022/12/24 13:29:29;;;;;;;11.23;2.08;;;;;;;;;;4992801;28;20049;-72
2022/12/24 13:32:32;;;;;;;19.70;2.58;;;;;;;;;;4983328;28;20065;-70
2022/12/24 13:35:03;;;;;;;12.35;2.25;;;;;;;;;;4947840;28;20054;-70
2022/12/24 13:37:39;;;;;;;19.08;3.08;;;;;;;;;;4983118;28;20059;-70
2022/12/24 13:40:15;;;;;;;9.60;1.98;;;;;;;;;;4976965;28;20066;-72
2022/12/24 13:43:06;;;;;;;10.32;1.95;;;;;;;;;;4999774;28;20085;-70
2022/12/24 13:45:42;;;;;;;14.35;2.50;;;;;;;;;;4981150;28;20087;-71
2022/12/24 13:48:14;;;;;;;15.23;2.33;;;;;;;;;;4989832;28;20054;-72
2022/12/24 13:50:48;;;;;;;20.45;2.20;;;;;;;;;;5000850;28;20132;-73
2022/12/24 13:53:23;;;;;;;18.00;2.17;;;;;;;;;;4999765;28;20058;-71
2022/12/24 13:55:51;;;;;;;14.02;2.40;;;;;;;;;;4997872;28;20091;-72
2022/12/24 13:58:19;;;;;;;11.95;2.38;;;;;;;;;;4983955;28;20068;-69
2022/12/24 14:00:53;;;;;;;17.50;2.22;;;;;;;;;;4999211;28;20156;-69
2022/12/24 19:20:41;;;;;;;11.88;4.32;;;;;;;;;;6236243;22;1682630;-82
2022/12/24 19:46:58;;;;;;;11.80;4.30;;;;;;;;;;6176817;22;1457044;-79
2022/12/24 20:05:44;;;;;;;11.10;3.72;;;;;;;;;;6101845;22;4418305;-93
2022/12/24 20:50:46;;;;;;;11.63;4.60;;;;;;;;;;6181362;22;20031;-72
2022/12/24 20:53:32;;;;;;;12.48;4.57;;;;;;;;;;6265500;22;20149;-72
2022/12/24 20:56:25;;;;;;;10.73;4.78;;;;;;;;;;6216283;22;20035;-72
2022/12/24 20:59:48;;;;;;;10.52;4.60;;;;;;;;;;6140557;22;20542;-72
2022/12/24 21:02:20;;;;;;;10.23;4.45;;;;;;;;;;6180384;22;20030;-72
2022/12/24 21:14:17;;;;;;;9.68;4.00;;;;;;;;;;6255790;22;20016;-73
2022/12/24 21:28:41;;;;;;;15.35;5.07;;;;;;;;;;6213963;22;20047;-72
2022/12/24 21:31:30;;;;;;;11.15;4.35;;;;;;;;;;6144155;22;20023;-72
2022/12/24 21:34:53;;;;;;;8.50;3.90;;;;;;;;;;6228941;22;20100;-72
2022/12/24 21:37:57;;;;;;;11.35;4.30;;;;;;;;;;6189687;22;20031;-71
2022/12/24 21:40:57;;;;;;;11.60;4.20;;;;;;;;;;6237448;22;20023;-72
2022/12/24 21:43:42;;;;;;;10.45;3.88;;;;;;;;;;6204519;22;20091;-72
2022/12/24 21:46:42;;;;;;;12.30;4.43;;;;;;;;;;6228847;22;20043;-72
2022/12/24 21:52:07;;;;;;;10.65;3.92;;;;;;;;;;6212163;22;20512;-72
2022/12/24 21:54:41;;;;;;;13.05;4.25;;;;;;;;;;6233143;22;20074;-72
2022/12/24 22:00:34;;;;;;;15.40;4.25;;;;;;;;;;6075172;23;20140;-71
2022/12/24 22:11:49;;;;;;;10.07;3.50;;;;;;;;;;6101821;23;19983;-72
2022/12/24 22:14:22;;;;;;;10.35;3.72;;;;;;;;;;6068276;23;20084;-71
2022/12/24 22:16:56;;;;;;;11.10;3.95;;;;;;;;;;6134961;23;20095;-71
2022/12/24 22:19:37;;;;;;;10.63;4.00;;;;;;;;;;6089510;23;20072;-72
2022/12/24 22:22:32;;;;;;;9.93;3.60;;;;;;;;;;6106460;23;20021;-71
2022/12/24 22:25:11;;;;;;;11.07;4.18;;;;;;;;;;6134441;23;20044;-71
2022/12/24 22:27:58;;;;;;;14.25;4.43;;;;;;;;;;6106291;23;20028;-72
2022/12/24 22:30:41;;;;;;;10.60;3.83;;;;;;;;;;6090196;23;20436;-72
2022/12/24 22:36:06;;;;;;;9.55;4.22;;;;;;;;;;6256716;22;20020;-72
2022/12/24 22:38:44;;;;;;;9.00;3.60;;;;;;;;;;6204030;22;20035;-71
2022/12/24 22:41:23;;;;;;;11.32;4.07;;;;;;;;;;6100776;22;20028;-72
2022/12/24 22:44:00;;;;;;;10.82;3.83;;;;;;;;;;6193785;22;20043;-71
2022/12/24 22:52:43;;;;;;;10.32;3.75;;;;;;;;;;6193200;22;20023;-71
2022/12/24 22:55:17;;;;;;;8.35;3.65;;;;;;;;;;6221267;22;20285;-72
2022/12/24 22:57:49;;;;;;;12.18;3.97;;;;;;;;;;6200183;22;20083;-71
2022/12/24 23:00:40;;;;;;;11.82;3.75;;;;;;;;;;6198652;22;20023;-73
2022/12/24 23:03:17;;;;;;;11.93;3.50;;;;;;;;;;6226389;22;20082;-72
2022/12/24 23:06:04;;;;;;;12.60;3.85;;;;;;;;;;6233912;22;20023;-71
2022/12/24 23:08:37;;;;;;;12.35;3.90;;;;;;;;;;6255150;22;20023;-72
2022/12/24 23:11:14;;;;;;;9.35;3.78;;;;;;;;;;6230261;22;20103;-72
2022/12/24 23:16:49;;;;;;;9.35;3.55;;;;;;;;;;6192721;22;20024;-72
2022/12/24 23:19:48;;;;;;;10.13;3.80;;;;;;;;;;6143785;22;20124;-72
2022/12/24 23:22:18;;;;;;;9.60;3.20;;;;;;;;;;6200300;22;20167;-71
2022/12/24 23:25:16;;;;;;;9.65;3.40;;;;;;;;;;6248573;22;20036;-71
2022/12/24 23:27:57;;;;;;;10.30;3.78;;;;;;;;;;6182488;22;20024;-71
2022/12/24 23:33:08;;;;;;;10.93;4.18;;;;;;;;;;6184348;22;20175;-71
2022/12/24 23:38:52;;;;;;;11.63;3.78;;;;;;;;;;6243126;22;20098;-71
2022/12/24 23:41:35;;;;;;;10.65;4.05;;;;;;;;;;6204363;22;20073;-71
2022/12/24 23:44:16;;;;;;;12.75;3.50;;;;;;;;;;6254835;22;20030;-71
2022/12/24 23:46:50;;;;;;;9.05;3.67;;;;;;;;;;6210444;22;20020;-71
2022/12/24 23:49:18;;;;;;;12.82;3.35;;;;;;;;;;6195120;22;20047;-71
2022/12/24 23:51:45;;;;;;;;;;;;;;;;;;6254886;22;20039;-71
2022/12/24 23:54:27;;;;;;;9.80;4.05;;;;;;;;;;6215632;22;19915;-72
2022/12/24 23:56:59;;;;;;;9.35;3.70;;;;;;;;;;6228774;22;20079;-71
2022/12/24 23:59:29;;;;;;;9.63;3.40;;;;;;;;;;6193467;22;20237;-71
